Time;durP1;ratioP1;P1;durP2;ratioP2;P2;SDS_P1;SDS_P2;PMS_P1;PMS_P2;Temp;Humidity;BMP_temperature;BMP_pressure;BME280_temperature;BME280_humidity;BME280_pressure;Samples;Min_cycle;Max_cycle;Signal;HPM_P1;HPM_P2
2021/08/05 00:00:03;;;;;;;;;;;21.50;76.60;;;;;;5052024;28;1417;-69
2021/08/05 00:02:28;;;;;;;;;;;21.50;76.60;;;;;;5050737;28;1389;-68
2021/08/05 00:04:53;;;;;;;;;;;21.50;76.60;;;;;;5050818;28;1590;-67
2021/08/05 00:07:19;;;;;;;;;;;21.50;76.70;;;;;;5050175;28;1527;-68
2021/08/05 00:09:44;;;;;;;;;;;21.50;76.60;;;;;;5051871;28;1034;-68
2021/08/05 00:12:10;;;;;;;;;;;21.50;76.60;;;;;;5050385;28;1176;-67
2021/08/05 00:14:36;;;;;;;;;;;21.50;76.70;;;;;;5050090;28;1377;-68
2021/08/05 00:17:03;;;;;;;;;;;21.50;76.70;;;;;;5052028;28;1909;-68
2021/08/05 00:19:28;;;;;;;;;;;21.50;76.60;;;;;;5050119;28;1503;-68
2021/08/05 00:21:54;;;;;;;;;;;21.50;76.70;;;;;;5052575;28;1143;-68
2021/08/05 00:24:19;;;;;;;;;;;21.50;76.70;;;;;;5051110;28;1329;-68
2021/08/05 00:26:44;;;;;;;;;;;21.50;76.70;;;;;;5051683;28;1360;-68
2021/08/05 00:29:10;;;;;;;;;;;21.50;76.70;;;;;;5050958;28;1398;-68
2021/08/05 00:31:35;;;;;;;;;;;21.50;76.70;;;;;;5051829;28;1222;-68
2021/08/05 00:34:01;;;;;;;;;;;21.50;76.70;;;;;;5049076;28;1498;-68
2021/08/05 00:36:26;;;;;;;;;;;21.50;76.70;;;;;;5051320;28;1965;-68
2021/08/05 00:38:52;;;;;;;;;;;21.50;76.70;;;;;;5051738;28;1325;-68
2021/08/05 00:41:17;;;;;;;;;;;21.50;76.70;;;;;;5051737;28;1318;-69
2021/08/05 00:43:42;;;;;;;;;;;21.50;76.70;;;;;;5050777;28;1294;-68
2021/08/05 00:46:08;;;;;;;;;;;21.50;76.70;;;;;;5049095;28;1589;-68
2021/08/05 00:48:33;;;;;;;;;;;21.40;76.60;;;;;;5051534;28;1346;-68
2021/08/05 00:50:59;;;;;;;;;;;21.40;76.60;;;;;;5050312;28;1564;-68
2021/08/05 00:53:25;;;;;;;;;;;21.50;76.70;;;;;;5039872;28;1454;-68
2021/08/05 00:55:50;;;;;;;;;;;21.50;76.70;;;;;;5049337;28;1894;-68
2021/08/05 00:58:16;;;;;;;;;;;21.50;76.70;;;;;;5050302;28;1225;-68
2021/08/05 01:00:42;;;;;;;;;;;21.50;76.70;;;;;;5050450;28;1870;-68
2021/08/05 01:03:12;;;;;;;;;;;21.40;76.70;;;;;;5033507;28;1191;-68
2021/08/05 01:05:42;;;;;;;;;;;21.50;76.70;;;;;;5049378;28;1631;-68
2021/08/05 01:08:08;;;;;;;;;;;21.50;76.70;;;;;;5049818;28;1410;-68
2021/08/05 01:10:46;;;;;;;;;;;21.50;76.70;;;;;;5050317;28;1650;-68
2021/08/05 01:13:13;;;;;;;;;;;21.50;76.70;;;;;;5050294;28;1660;-68
2021/08/05 01:15:38;;;;;;;;;;;21.40;76.70;;;;;;5049447;28;1897;-67
2021/08/05 01:18:13;;;;;;;;;;;21.40;76.70;;;;;;5051937;28;1225;-67
2021/08/05 01:20:41;;;;;;;;;;;21.40;76.60;;;;;;5055180;28;1385;-70
2021/08/05 01:23:10;;;;;;;;;;;21.50;76.80;;;;;;5053749;28;1363;-67
2021/08/05 01:26:15;;;;;;;;;;;21.40;76.70;;;;;;5054195;28;1458;-70
2021/08/05 01:28:40;;;;;;;;;;;21.40;76.70;;;;;;5032579;28;1704;-67
2021/08/05 01:31:06;;;;;;;;;;;21.50;76.70;;;;;;5022401;28;1099;-67
2021/08/05 01:33:31;;;;;;;;;;;21.50;76.70;;;;;;5039903;28;1694;-69
2021/08/05 01:35:57;;;;;;;;;;;21.50;76.70;;;;;;5054107;28;1923;-67
2021/08/05 01:38:22;;;;;;;;;;;21.40;76.70;;;;;;5052959;28;1671;-68
2021/08/05 01:40:48;;;;;;;;;;;21.40;76.70;;;;;;5053621;28;1501;-70
2021/08/05 01:43:14;;;;;;;;;;;21.40;76.70;;;;;;5053108;28;1363;-70
2021/08/05 01:45:40;;;;;;;;;;;21.40;76.70;;;;;;5053091;28;1486;-69
2021/08/05 01:48:06;;;;;;;;;;;21.40;76.70;;;;;;5052128;28;1656;-68
2021/08/05 01:50:31;;;;;;;;;;;21.50;76.80;;;;;;5051907;28;1175;-69
2021/08/05 01:52:57;;;;;;;;;;;21.40;76.70;;;;;;5041427;28;1255;-67
2021/08/05 01:55:22;;;;;;;;;;;21.50;76.80;;;;;;5053834;28;956;-68
2021/08/05 01:57:48;;;;;;;;;;;21.40;76.70;;;;;;5053314;28;1953;-67
2021/08/05 02:00:13;;;;;;;;;;;21.40;76.70;;;;;;5054395;28;1437;-67
2021/08/05 02:02:39;;;;;;;;;;;21.40;76.70;;;;;;5054436;28;1412;-67
2021/08/05 02:05:05;;;;;;;;;;;21.40;76.70;;;;;;5053676;28;1685;-67
2021/08/05 02:07:32;;;;;;;;;;;21.40;76.70;;;;;;5054320;28;1300;-68
2021/08/05 02:10:00;;;;;;;;;;;21.40;76.70;;;;;;5054014;28;1674;-69
2021/08/05 02:12:27;;;;;;;;;;;21.40;76.70;;;;;;5054818;28;1332;-69
2021/08/05 02:14:52;;;;;;;;;;;21.50;76.80;;;;;;5052269;28;1357;-68
2021/08/05 02:17:18;;;;;;;;;;;21.40;76.70;;;;;;5052944;28;1898;-69
2021/08/05 02:19:44;;;;;;;;;;;21.50;76.80;;;;;;5054527;28;1367;-70
2021/08/05 02:22:09;;;;;;;;;;;21.40;76.70;;;;;;5054263;28;1381;-69
2021/08/05 02:24:35;;;;;;;;;;;21.40;76.70;;;;;;5051762;28;817;-70
2021/08/05 02:27:00;;;;;;;;;;;21.40;76.80;;;;;;5052945;28;1697;-68
2021/08/05 02:29:27;;;;;;;;;;;21.50;76.80;;;;;;5051912;28;1630;-70
2021/08/05 02:31:52;;;;;;;;;;;21.40;76.70;;;;;;5052830;28;1718;-70
2021/08/05 02:34:18;;;;;;;;;;;21.40;76.70;;;;;;5049660;28;1453;-70
2021/08/05 02:36:43;;;;;;;;;;;21.40;77.00;;;;;;5053703;28;1963;-70
2021/08/05 02:39:08;;;;;;;;;;;21.50;77.00;;;;;;5052235;28;1364;-70
2021/08/05 02:41:34;;;;;;;;;;;21.50;77.00;;;;;;5053953;28;1640;-69
2021/08/05 02:43:59;;;;;;;;;;;21.50;76.90;;;;;;5052330;28;1364;-69
2021/08/05 02:46:25;;;;;;;;;;;21.40;76.80;;;;;;5053732;28;1532;-69
2021/08/05 02:48:50;;;;;;;;;;;21.40;76.80;;;;;;5052386;28;1665;-70
2021/08/05 02:51:16;;;;;;;;;;;21.50;76.90;;;;;;5052085;28;1682;-69
2021/08/05 02:53:41;;;;;;;;;;;21.40;76.80;;;;;;5040742;28;1685;-70
2021/08/05 02:56:10;;;;;;;;;;;21.50;76.90;;;;;;5051237;28;1898;-69
2021/08/05 02:58:35;;;;;;;;;;;21.50;76.90;;;;;;5050305;28;1164;-67
2021/08/05 03:01:01;;;;;;;;;;;21.40;76.80;;;;;;5050176;28;1350;-70
2021/08/05 03:03:26;;;;;;;;;;;21.40;76.80;;;;;;5050260;28;1262;-67
2021/08/05 03:05:51;;;;;;;;;;;21.40;76.80;;;;;;5050852;28;1299;-69
2021/08/05 03:08:17;;;;;;;;;;;21.50;76.90;;;;;;5050393;28;1270;-67
2021/08/05 03:10:42;;;;;;;;;;;21.50;76.90;;;;;;5051512;28;1275;-70
2021/08/05 03:13:08;;;;;;;;;;;21.40;76.80;;;;;;5051391;28;1352;-68
2021/08/05 03:15:33;;;;;;;;;;;21.50;76.90;;;;;;5049965;28;1961;-68
2021/08/05 03:17:59;;;;;;;;;;;21.40;77.60;;;;;;5051577;28;1281;-67
2021/08/05 03:20:24;;;;;;;;;;;21.50;76.90;;;;;;5051175;28;1228;-67
2021/08/05 03:22:50;;;;;;;;;;;21.40;76.80;;;;;;5049822;28;1255;-68
2021/08/05 03:25:15;;;;;;;;;;;21.40;76.90;;;;;;5048906;28;1231;-70
2021/08/05 03:27:41;;;;;;;;;;;21.40;76.80;;;;;;5049848;28;1368;-69
2021/08/05 03:30:06;;;;;;;;;;;21.40;76.90;;;;;;5053342;28;1404;-68
2021/08/05 03:32:32;;;;;;;;;;;21.40;76.90;;;;;;5052919;28;1378;-67
2021/08/05 03:34:57;;;;;;;;;;;21.40;76.90;;;;;;5050298;28;1477;-70
2021/08/05 03:37:23;;;;;;;;;;;21.40;76.90;;;;;;5052653;28;1902;-69
2021/08/05 03:39:48;;;;;;;;;;;21.40;76.90;;;;;;5052842;28;1243;-70
2021/08/05 03:42:13;;;;;;;;;;;21.40;76.90;;;;;;5051679;28;1382;-71
2021/08/05 03:44:39;;;;;;;;;;;21.40;76.80;;;;;;5052082;28;1673;-69
2021/08/05 03:47:04;;;;;;;;;;;21.40;76.90;;;;;;5052964;28;1383;-67
2021/08/05 03:49:30;;;;;;;;;;;21.40;76.90;;;;;;5052969;28;1730;-69
2021/08/05 03:51:55;;;;;;;;;;;21.40;76.90;;;;;;5045946;28;1671;-69
2021/08/05 03:54:21;;;;;;;;;;;21.40;76.90;;;;;;5046442;28;1354;-69
2021/08/05 03:56:46;;;;;;;;;;;21.40;76.90;;;;;;5052559;28;1983;-69
2021/08/05 03:59:11;;;;;;;;;;;21.40;76.90;;;;;;5051485;28;1395;-69
2021/08/05 04:01:37;;;;;;;;;;;21.40;76.90;;;;;;5052703;28;1631;-69
2021/08/05 04:04:02;;;;;;;;;;;21.40;76.90;;;;;;5052482;28;1379;-69
2021/08/05 04:06:28;;;;;;;;;;;21.40;76.90;;;;;;5052289;28;1691;-69
2021/08/05 04:08:53;;;;;;;;;;;21.40;76.90;;;;;;5052552;28;1380;-70
2021/08/05 04:11:19;;;;;;;;;;;21.40;76.90;;;;;;5052511;28;1627;-69
2021/08/05 04:13:44;;;;;;;;;;;21.40;76.90;;;;;;5052045;28;1373;-69
2021/08/05 04:16:09;;;;;;;;;;;21.40;76.90;;;;;;5051819;28;1957;-69
2021/08/05 04:18:35;;;;;;;;;;;21.40;76.90;;;;;;5051137;28;1393;-69
2021/08/05 04:21:00;;;;;;;;;;;21.40;76.90;;;;;;5051320;28;1382;-69
2021/08/05 04:23:26;;;;;;;;;;;21.40;76.90;;;;;;5052412;28;1381;-70
2021/08/05 04:25:51;;;;;;;;;;;21.40;76.90;;;;;;5051010;28;1695;-70
2021/08/05 04:28:17;;;;;;;;;;;21.40;77.00;;;;;;5052340;28;1358;-69
2021/08/05 04:30:43;;;;;;;;;;;21.40;76.90;;;;;;5052443;28;1701;-69
2021/08/05 04:33:08;;;;;;;;;;;21.40;76.90;;;;;;5051895;28;1357;-69
2021/08/05 04:35:33;;;;;;;;;;;21.40;77.00;;;;;;5051376;28;2216;-69
2021/08/05 04:38:00;;;;;;;;;;;21.40;76.90;;;;;;5052285;28;1252;-69
2021/08/05 04:40:27;;;;;;;;;;;21.40;77.00;;;;;;5034363;28;1667;-70
2021/08/05 04:42:52;;;;;;;;;;;21.40;77.00;;;;;;5052188;28;1330;-70
2021/08/05 04:45:17;;;;;;;;;;;21.40;77.00;;;;;;5050250;28;1584;-70
2021/08/05 04:47:49;;;;;;;;;;;21.40;77.00;;;;;;5052361;28;1381;-68
2021/08/05 04:50:14;;;;;;;;;;;21.40;77.00;;;;;;5051775;28;1381;-68
2021/08/05 04:52:39;;;;;;;;;;;21.40;77.00;;;;;;5039781;28;1429;-67
2021/08/05 04:55:05;;;;;;;;;;;21.40;77.00;;;;;;5055168;28;1178;-69
2021/08/05 04:57:30;;;;;;;;;;;21.40;77.00;;;;;;5055840;28;1902;-69
2021/08/05 04:59:56;;;;;;;;;;;21.40;77.00;;;;;;5055693;28;1726;-69
2021/08/05 05:02:21;;;;;;;;;;;21.40;77.00;;;;;;5055999;28;1174;-69
2021/08/05 05:04:47;;;;;;;;;;;21.40;77.00;;;;;;5055013;28;1691;-70
2021/08/05 05:07:12;;;;;;;;;;;21.40;77.20;;;;;;5055298;28;1352;-70
2021/08/05 05:09:37;;;;;;;;;;;21.40;77.10;;;;;;5050107;28;1485;-70
2021/08/05 05:12:03;;;;;;;;;;;21.40;77.10;;;;;;5044421;28;1904;-69
2021/08/05 05:14:28;;;;;;;;;;;21.40;77.10;;;;;;5049690;28;1957;-70
2021/08/05 05:16:54;;;;;;;;;;;21.40;77.10;;;;;;5048342;28;1894;-67
2021/08/05 05:19:20;;;;;;;;;;;21.40;77.10;;;;;;5046712;28;1530;-69
2021/08/05 05:21:46;;;;;;;;;;;21.40;77.10;;;;;;5053988;28;1637;-74
2021/08/05 05:24:11;;;;;;;;;;;21.40;77.10;;;;;;5053126;28;1322;-73
2021/08/05 05:26:37;;;;;;;;;;;21.40;77.10;;;;;;5051386;28;1242;-74
2021/08/05 05:29:02;;;;;;;;;;;21.40;77.10;;;;;;5054592;28;1660;-72
2021/08/05 05:31:27;;;;;;;;;;;21.40;77.10;;;;;;5054524;28;1579;-68
2021/08/05 05:33:53;;;;;;;;;;;21.40;77.00;;;;;;5052799;28;1467;-67
2021/08/05 05:36:18;;;;;;;;;;;21.40;77.00;;;;;;5053351;28;1902;-68
2021/08/05 05:38:44;;;;;;;;;;;21.40;77.00;;;;;;5054463;28;1351;-72
2021/08/05 05:41:09;;;;;;;;;;;21.40;77.00;;;;;;5053790;28;1356;-72
2021/08/05 05:43:35;;;;;;;;;;;21.40;77.10;;;;;;5054117;28;1369;-72
2021/08/05 05:46:00;;;;;;;;;;;21.40;77.00;;;;;;5053484;28;1720;-71
2021/08/05 05:48:25;;;;;;;;;;;21.40;77.00;;;;;;5054088;28;1381;-71
2021/08/05 05:50:51;;;;;;;;;;;21.40;77.00;;;;;;5053760;28;1298;-72
2021/08/05 05:53:16;;;;;;;;;;;21.40;77.00;;;;;;5041188;28;1383;-72
2021/08/05 05:55:42;;;;;;;;;;;21.40;77.00;;;;;;5053031;28;1965;-71
2021/08/05 05:58:07;;;;;;;;;;;21.40;77.00;;;;;;5027737;28;2094;-71
2021/08/05 06:00:33;;;;;;;;;;;21.40;77.00;;;;;;5047475;28;1441;-70
2021/08/05 06:03:00;;;;;;;;;;;21.40;77.00;;;;;;5048261;28;1748;-71
2021/08/05 06:05:25;;;;;;;;;;;21.40;77.00;;;;;;5052064;28;1165;-71
2021/08/05 06:07:51;;;;;;;;;;;21.50;77.10;;;;;;5043466;28;1392;-71
2021/08/05 06:10:17;;;;;;;;;;;21.40;77.00;;;;;;5044804;28;1177;-71
2021/08/05 06:12:43;;;;;;;;;;;21.40;77.00;;;;;;5052659;28;1159;-71
2021/08/05 06:15:09;;;;;;;;;;;21.40;77.10;;;;;;5051453;28;1166;-71
2021/08/05 06:17:34;;;;;;;;;;;21.40;77.00;;;;;;5052177;28;1965;-72
2021/08/05 06:20:00;;;;;;;;;;;21.40;77.10;;;;;;5053079;28;1627;-71
2021/08/05 06:22:26;;;;;;;;;;;21.40;77.00;;;;;;5052598;28;1823;-71
2021/08/05 06:24:51;;;;;;;;;;;21.40;77.00;;;;;;5052681;28;1708;-72
2021/08/05 06:27:17;;;;;;;;;;;21.40;77.00;;;;;;5052635;28;1576;-70
2021/08/05 06:29:42;;;;;;;;;;;21.40;77.10;;;;;;5053082;28;1343;-69
2021/08/05 06:32:07;;;;;;;;;;;21.40;77.00;;;;;;5051516;28;1383;-71
2021/08/05 06:34:33;;;;;;;;;;;21.40;77.80;;;;;;5052136;28;1399;-70
2021/08/05 06:36:58;;;;;;;;;;;21.40;77.00;;;;;;5051811;28;1885;-70
2021/08/05 06:39:24;;;;;;;;;;;21.40;77.00;;;;;;5046860;28;1732;-73
2021/08/05 06:41:49;;;;;;;;;;;21.40;77.00;;;;;;5045545;28;1434;-73
2021/08/05 06:44:15;;;;;;;;;;;21.40;77.00;;;;;;5049959;28;1397;-71
2021/08/05 06:46:40;;;;;;;;;;;21.50;77.10;;;;;;5051869;28;1676;-73
2021/08/05 06:49:05;;;;;;;;;;;21.40;77.00;;;;;;5051599;28;1652;-74
2021/08/05 06:51:31;;;;;;;;;;;21.50;77.10;;;;;;5048570;28;1195;-72
2021/08/05 06:53:56;;;;;;;;;;;21.40;77.00;;;;;;5043463;28;1648;-73
2021/08/05 06:56:22;;;;;;;;;;;21.40;77.00;;;;;;5050970;28;1965;-69
2021/08/05 06:58:47;;;;;;;;;;;21.40;77.00;;;;;;5053511;28;1361;-71
2021/08/05 07:01:13;;;;;;;;;;;21.40;77.10;;;;;;5051664;28;1677;-70
2021/08/05 07:03:38;;;;;;;;;;;21.40;77.00;;;;;;5053068;28;988;-71
2021/08/05 07:06:04;;;;;;;;;;;21.40;77.00;;;;;;5052283;28;1262;-72
2021/08/05 07:08:29;;;;;;;;;;;21.40;77.00;;;;;;5051650;28;1146;-71
2021/08/05 07:10:55;;;;;;;;;;;21.40;77.00;;;;;;5053125;28;1123;-70
2021/08/05 07:13:20;;;;;;;;;;;21.40;77.00;;;;;;5051148;28;1134;-68
2021/08/05 07:15:46;;;;;;;;;;;21.40;77.00;;;;;;5052174;28;1878;-69
2021/08/05 07:18:11;;;;;;;;;;;21.40;77.00;;;;;;5052593;28;1234;-69
2021/08/05 07:20:36;;;;;;;;;;;21.40;77.10;;;;;;5052767;28;1095;-69
2021/08/05 07:23:02;;;;;;;;;;;21.40;77.00;;;;;;5052037;28;1115;-69
2021/08/05 07:25:27;;;;;;;;;;;21.40;77.00;;;;;;5051433;28;1043;-69
2021/08/05 07:27:53;;;;;;;;;;;21.40;77.00;;;;;;5052328;28;1184;-71
2021/08/05 07:30:18;;;;;;;;;;;21.40;77.00;;;;;;5052513;28;1178;-69
2021/08/05 07:32:44;;;;;;;;;;;21.40;77.00;;;;;;5052671;28;1048;-70
2021/08/05 07:35:09;;;;;;;;;;;21.40;77.10;;;;;;5051685;28;1107;-70
2021/08/05 07:37:35;;;;;;;;;;;21.40;77.10;;;;;;5053067;28;1902;-70
2021/08/05 07:40:00;;;;;;;;;;;21.40;77.00;;;;;;5051341;28;1123;-70
2021/08/05 07:42:25;;;;;;;;;;;21.40;77.00;;;;;;5052915;28;1071;-70
2021/08/05 07:44:51;;;;;;;;;;;21.40;77.00;;;;;;5051641;28;1146;-70
2021/08/05 07:47:16;;;;;;;;;;;21.40;77.10;;;;;;5053084;28;1278;-71
2021/08/05 07:49:42;;;;;;;;;;;21.40;77.00;;;;;;5052609;28;1135;-72
2021/08/05 07:52:07;;;;;;;;;;;21.40;77.10;;;;;;5034595;28;1447;-72
2021/08/05 07:54:33;;;;;;;;;;;21.40;77.00;;;;;;5050467;28;1080;-71
2021/08/05 07:56:58;;;;;;;;;;;21.40;77.00;;;;;;5052293;28;1906;-71
2021/08/05 07:59:24;;;;;;;;;;;21.40;77.10;;;;;;5052436;28;1047;-71
2021/08/05 08:01:49;;;;;;;;;;;21.40;77.00;;;;;;5051134;28;1088;-71
2021/08/05 08:04:14;;;;;;;;;;;21.40;77.00;;;;;;5050176;28;1115;-71
2021/08/05 08:06:40;;;;;;;;;;;21.40;77.00;;;;;;5050847;28;1296;-72
2021/08/05 08:09:05;;;;;;;;;;;21.40;77.00;;;;;;5052539;28;1111;-71
2021/08/05 08:11:31;;;;;;;;;;;21.40;77.00;;;;;;5052020;28;1064;-71
2021/08/05 08:13:56;;;;;;;;;;;21.40;77.00;;;;;;5052732;28;1076;-72
2021/08/05 08:16:22;;;;;;;;;;;21.40;77.00;;;;;;5051485;28;1957;-73
2021/08/05 08:18:47;;;;;;;;;;;21.40;77.00;;;;;;5051125;28;1120;-73
2021/08/05 08:21:13;;;;;;;;;;;21.40;77.00;;;;;;5052244;28;1107;-72
2021/08/05 08:23:38;;;;;;;;;;;21.40;77.00;;;;;;5051376;28;1166;-72
2021/08/05 08:26:04;;;;;;;;;;;21.40;77.10;;;;;;5051206;28;1265;-72
2021/08/05 08:28:29;;;;;;;;;;;21.40;77.10;;;;;;5052671;28;1080;-73
2021/08/05 08:30:55;;;;;;;;;;;21.40;77.00;;;;;;5055425;28;1087;-70
2021/08/05 08:33:20;;;;;;;;;;;21.40;77.00;;;;;;5055954;28;1047;-70
2021/08/05 08:35:46;;;;;;;;;;;21.40;77.00;;;;;;5055642;28;1906;-70
2021/08/05 08:38:11;;;;;;;;;;;21.40;77.00;;;;;;5055265;28;1241;-70
2021/08/05 08:40:37;;;;;;;;;;;21.40;77.00;;;;;;5047705;28;1999;-72
2021/08/05 08:43:04;;;;;;;;;;;21.40;77.00;;;;;;5054142;28;1102;-72
2021/08/05 08:45:29;;;;;;;;;;;21.40;77.00;;;;;;5054277;28;1220;-70
2021/08/05 08:47:55;;;;;;;;;;;21.40;77.00;;;;;;5053352;28;1314;-71
2021/08/05 08:50:27;;;;;;;;;;;21.40;77.00;;;;;;5054526;28;1075;-71
2021/08/05 08:52:53;;;;;;;;;;;21.40;77.00;;;;;;5043157;28;1096;-71
2021/08/05 08:55:20;;;;;;;;;;;21.40;77.10;;;;;;5054052;28;1150;-71
2021/08/05 08:57:45;;;;;;;;;;;21.40;77.00;;;;;;5054451;28;1963;-70
2021/08/05 09:00:11;;;;;;;;;;;21.40;77.00;;;;;;5056602;28;1087;-70
2021/08/05 09:02:36;;;;;;;;;;;21.40;77.00;;;;;;5055605;28;1047;-72
2021/08/05 09:05:03;;;;;;;;;;;21.40;77.10;;;;;;5053499;28;1158;-71
2021/08/05 09:07:28;;;;;;;;;;;21.40;77.00;;;;;;5055573;28;1258;-71
2021/08/05 09:09:54;;;;;;;;;;;21.40;77.00;;;;;;5044949;28;1589;-67
2021/08/05 09:12:19;;;;;;;;;;;21.40;77.00;;;;;;5049199;28;1971;-69
2021/08/05 09:14:49;;;;;;;;;;;21.40;76.90;;;;;;5052097;28;1244;-69
2021/08/05 09:17:20;;;;;;;;;;;21.40;76.90;;;;;;5050881;28;1959;-68
2021/08/05 09:19:45;;;;;;;;;;;21.40;77.60;;;;;;5051677;28;1052;-68
2021/08/05 09:22:11;;;;;;;;;;;21.40;76.90;;;;;;5052867;28;1089;-69
2021/08/05 09:24:36;;;;;;;;;;;21.40;76.90;;;;;;5051131;28;1134;-68
2021/08/05 09:27:06;;;;;;;;;;;21.40;76.80;;;;;;5053345;28;1368;-72
2021/08/05 09:29:31;;;;;;;;;;;21.40;76.80;;;;;;5051965;28;1302;-69
2021/08/05 09:31:58;;;;;;;;;;;21.40;76.80;;;;;;5032529;28;1260;-69
2021/08/05 09:34:34;;;;;;;;;;;21.40;76.80;;;;;;5051294;28;1131;-69
2021/08/05 09:37:06;;;;;;;;;;;21.40;76.80;;;;;;5051810;28;1909;-68
2021/08/05 09:39:32;;;;;;;;;;;21.50;76.90;;;;;;5051487;28;1271;-69
2021/08/05 09:41:57;;;;;;;;;;;21.40;76.80;;;;;;5051260;28;1196;-71
2021/08/05 09:44:23;;;;;;;;;;;21.40;76.80;;;;;;5053711;28;1150;-70
2021/08/05 09:47:04;;;;;;;;;;;21.40;76.80;;;;;;5053794;28;1285;-71
2021/08/05 09:49:30;;;;;;;;;;;21.40;76.80;;;;;;5053779;28;1087;-71
2021/08/05 09:51:58;;;;;;;;;;;21.40;76.80;;;;;;5053128;28;1060;-68
2021/08/05 09:54:36;;;;;;;;;;;21.40;76.80;;;;;;5052874;28;1131;-68
2021/08/05 09:57:02;;;;;;;;;;;21.40;76.80;;;;;;5053219;28;1959;-70
2021/08/05 09:59:27;;;;;;;;;;;21.40;76.90;;;;;;5051946;28;1154;-71
2021/08/05 10:01:57;;;;;;;;;;;21.40;76.80;;;;;;5052230;28;988;-70
2021/08/05 10:04:32;;;;;;;;;;;21.40;76.90;;;;;;5050732;28;1123;-69
2021/08/05 10:07:04;;;;;;;;;;;21.40;76.90;;;;;;5053208;28;1259;-70
2021/08/05 10:09:29;;;;;;;;;;;21.40;76.90;;;;;;5052884;28;1111;-69
2021/08/05 10:12:11;;;;;;;;;;;21.40;76.90;;;;;;5051827;28;1110;-69
2021/08/05 10:14:36;;;;;;;;;;;21.50;76.90;;;;;;5052337;28;1115;-68
2021/08/05 10:17:03;;;;;;;;;;;21.40;76.90;;;;;;5051634;28;1906;-69
2021/08/05 10:19:28;;;;;;;;;;;21.40;76.90;;;;;;5051291;28;1127;-70
2021/08/05 10:21:54;;;;;;;;;;;21.50;77.00;;;;;;5052967;28;1039;-70
2021/08/05 10:24:19;;;;;;;;;;;21.50;77.00;;;;;;5050929;28;1059;-69
2021/08/05 10:26:45;;;;;;;;;;;21.40;76.90;;;;;;5050971;28;1271;-69
2021/08/05 10:29:12;;;;;;;;;;;21.40;76.90;;;;;;5046546;28;1527;-68
2021/08/05 10:31:39;;;;;;;;;;;21.40;76.90;;;;;;5050056;28;1067;-69
2021/08/05 10:34:05;;;;;;;;;;;21.40;77.00;;;;;;5048035;28;1294;-69
2021/08/05 10:36:30;;;;;;;;;;;21.50;77.00;;;;;;5051535;28;1902;-72
2021/08/05 10:38:56;;;;;;;;;;;21.40;77.00;;;;;;5050856;28;1167;-65
2021/08/05 10:41:21;;;;;;;;;;;21.50;77.10;;;;;;5041570;28;1739;-68
2021/08/05 10:43:47;;;;;;;;;;;21.40;77.00;;;;;;5045791;28;1523;-68
2021/08/05 10:46:13;;;;;;;;;;;21.40;77.00;;;;;;5048383;28;1343;-70
2021/08/05 10:48:38;;;;;;;;;;;21.40;76.90;;;;;;5046819;28;1597;-66
2021/08/05 10:51:04;;;;;;;;;;;21.50;77.00;;;;;;5049356;28;1291;-67
2021/08/05 10:53:32;;;;;;;;;;;21.50;77.00;;;;;;5052037;28;1165;-68
2021/08/05 10:56:16;;;;;;;;;;;21.40;77.00;;;;;;5045561;28;1969;-68
2021/08/05 10:59:17;;;;;;;;;;;21.40;76.90;;;;;;5052056;28;1079;-70
2021/08/05 11:01:42;;;;;;;;;;;21.40;77.00;;;;;;5011754;28;1285;-70
2021/08/05 11:04:08;;;;;;;;;;;21.40;76.90;;;;;;5046223;28;1187;-70
2021/08/05 11:06:33;;;;;;;;;;;21.40;77.00;;;;;;5051074;28;1323;-70
2021/08/05 11:09:18;;;;;;;;;;;21.50;77.10;;;;;;5052717;28;1063;-69
2021/08/05 11:11:43;;;;;;;;;;;21.50;77.10;;;;;;5052410;28;1150;-71
2021/08/05 11:14:21;;;;;;;;;;;21.40;77.20;;;;;;5052454;28;1083;-70
2021/08/05 11:16:59;;;;;;;;;;;21.40;77.40;;;;;;5052737;28;1989;-71
2021/08/05 11:19:27;;;;;;;;;;;21.40;77.10;;;;;;5052254;28;1087;-71
2021/08/05 11:21:53;;;;;;;;;;;21.50;77.10;;;;;;5052698;28;1102;-71
2021/08/05 11:24:37;;;;;;;;;;;21.40;77.00;;;;;;5052008;28;1087;-68
2021/08/05 11:27:09;;;;;;;;;;;21.40;77.00;;;;;;5052481;28;1369;-69
2021/08/05 11:29:34;;;;;;;;;;;21.50;76.90;;;;;;5051784;28;1138;-69
2021/08/05 11:32:11;;;;;;;;;;;21.40;76.90;;;;;;5050557;28;1437;-67
2021/08/05 11:34:52;;;;;;;;;;;21.40;76.70;;;;;;5047285;28;1327;-66
2021/08/05 11:37:17;;;;;;;;;;;21.50;76.80;;;;;;5039716;28;1906;-67
2021/08/05 11:39:50;;;;;;;;;;;21.40;76.70;;;;;;5052808;28;1025;-67
2021/08/05 11:42:18;;;;;;;;;;;21.40;76.70;;;;;;5051786;28;1068;-67
2021/08/05 11:45:07;;;;;;;;;;;21.40;76.60;;;;;;5050723;28;944;-67
2021/08/05 11:47:36;;;;;;;;;;;21.50;76.70;;;;;;5052310;28;1242;-67
2021/08/05 11:50:02;;;;;;;;;;;21.40;76.70;;;;;;5052447;28;1190;-69
2021/08/05 11:52:27;;;;;;;;;;;21.40;76.80;;;;;;5041906;28;1126;-68
2021/08/05 11:55:11;;;;;;;;;;;21.50;76.90;;;;;;5051531;28;1227;-68
2021/08/05 11:57:41;;;;;;;;;;;21.40;76.90;;;;;;5051845;28;1898;-68
2021/08/05 12:00:27;;;;;;;;;;;21.40;76.90;;;;;;5050984;28;1091;-67
2021/08/05 12:02:53;;;;;;;;;;;21.40;77.00;;;;;;5050577;28;1327;-67
2021/08/05 12:05:20;;;;;;;;;;;21.50;77.10;;;;;;5050930;28;1075;-68
2021/08/05 12:07:49;;;;;;;;;;;21.50;77.10;;;;;;5050499;28;1355;-70
2021/08/05 12:10:14;;;;;;;;;;;21.50;77.00;;;;;;5050799;28;1127;-70
2021/08/05 12:12:49;;;;;;;;;;;21.50;77.00;;;;;;5051334;28;1052;-69
2021/08/05 12:15:18;;;;;;;;;;;21.50;77.10;;;;;;5050150;28;1771;-70
2021/08/05 12:17:47;;;;;;;;;;;21.50;77.00;;;;;;5050723;28;1899;-68
2021/08/05 12:20:39;;;;;;;;;;;21.50;77.10;;;;;;5049739;28;1392;-69
2021/08/05 12:23:07;;;;;;;;;;;21.50;77.00;;;;;;5050490;28;1134;-71
2021/08/05 12:28:31;;;;;;;;;;;21.50;77.00;;;;;;5052194;28;1060;-68
2021/08/05 12:30:57;;;;;;;;;;;21.50;77.10;;;;;;5050367;28;1138;-72
2021/08/05 12:33:26;;;;;;;;;;;21.50;76.90;;;;;;5051433;28;1060;-67
2021/08/05 12:35:58;;;;;;;;;;;21.50;77.00;;;;;;5050793;28;1914;-69
2021/08/05 12:38:24;;;;;;;;;;;21.50;77.00;;;;;;5050413;28;1182;-68
2021/08/05 12:40:49;;;;;;;;;;;21.50;77.00;;;;;;5050665;28;1186;-69
2021/08/05 12:43:15;;;;;;;;;;;21.50;77.10;;;;;;5049241;28;1627;-68
2021/08/05 12:45:41;;;;;;;;;;;21.50;77.20;;;;;;5040020;28;1990;-69
2021/08/05 12:48:07;;;;;;;;;;;21.50;77.40;;;;;;5050579;28;1280;-68
2021/08/05 12:50:35;;;;;;;;;;;21.50;77.30;;;;;;5042754;28;1102;-68
2021/08/05 12:53:01;;;;;;;;;;;21.50;77.40;;;;;;5038447;28;1243;-70
2021/08/05 12:55:26;;;;;;;;;;;21.50;77.40;;;;;;5050787;28;1166;-70
2021/08/05 12:57:53;;;;;;;;;;;21.50;77.40;;;;;;5051253;28;1985;-70
2021/08/05 13:00:28;;;;;;;;;;;21.50;77.40;;;;;;5050007;28;1154;-70
2021/08/05 13:02:54;;;;;;;;;;;21.50;77.40;;;;;;5051350;28;1126;-69
2021/08/05 13:05:19;;;;;;;;;;;21.50;77.40;;;;;;5048908;28;1093;-68
2021/08/05 13:07:47;;;;;;;;;;;21.50;77.30;;;;;;5051323;28;1329;-70
2021/08/05 13:10:12;;;;;;;;;;;21.50;77.40;;;;;;5050320;28;1126;-70
2021/08/05 13:12:45;;;;;;;;;;;21.50;77.30;;;;;;5050574;28;1118;-69
2021/08/05 13:15:26;;;;;;;;;;;21.50;77.30;;;;;;5053579;28;1075;-66
2021/08/05 13:17:51;;;;;;;;;;;21.50;77.30;;;;;;5055501;28;1898;-70
2021/08/05 13:20:19;;;;;;;;;;;21.50;77.30;;;;;;5053551;28;921;-70
2021/08/05 13:22:44;;;;;;;;;;;21.50;77.20;;;;;;5053780;28;1088;-70
2021/08/05 13:25:11;;;;;;;;;;;21.50;77.20;;;;;;5054752;28;1111;-68
2021/08/05 13:27:36;;;;;;;;;;;21.50;77.20;;;;;;5053550;28;1161;-69
2021/08/05 13:30:21;;;;;;;;;;;21.50;77.20;;;;;;5054383;28;1131;-68
2021/08/05 13:32:49;;;;;;;;;;;21.50;77.20;;;;;;5054253;28;1220;-68
2021/08/05 13:35:16;;;;;;;;;;;21.50;77.20;;;;;;5052365;28;1186;-71
2021/08/05 13:37:42;;;;;;;;;;;21.50;77.20;;;;;;5053644;28;1910;-68
2021/08/05 13:40:08;;;;;;;;;;;21.50;77.30;;;;;;5055169;28;1091;-67
2021/08/05 13:42:37;;;;;;;;;;;21.50;77.20;;;;;;5053430;28;1107;-71
2021/08/05 13:45:02;;;;;;;;;;;21.50;77.30;;;;;;5054709;28;1100;-68
2021/08/05 13:47:28;;;;;;;;;;;21.50;77.30;;;;;;5054907;28;1215;-70
2021/08/05 13:49:53;;;;;;;;;;;21.50;77.30;;;;;;5054504;28;1067;-71
2021/08/05 13:52:19;;;;;;;;;;;21.50;77.30;;;;;;5044377;28;1079;-70
2021/08/05 13:54:45;;;;;;;;;;;21.50;77.40;;;;;;5052390;28;1092;-67
2021/08/05 13:57:10;;;;;;;;;;;21.50;77.40;;;;;;5053315;28;1902;-69
2021/08/05 13:59:35;;;;;;;;;;;21.50;77.40;;;;;;5054799;28;1142;-69
2021/08/05 14:02:01;;;;;;;;;;;21.50;77.40;;;;;;5054388;28;1063;-69
2021/08/05 14:04:27;;;;;;;;;;;21.50;77.30;;;;;;5051864;28;1243;-69
2021/08/05 14:06:53;;;;;;;;;;;21.50;77.30;;;;;;5048695;28;2157;-69
2021/08/05 14:09:18;;;;;;;;;;;21.50;77.40;;;;;;5046029;28;1146;-69
2021/08/05 14:11:44;;;;;;;;;;;21.50;77.20;;;;;;5046104;28;1058;-70
2021/08/05 14:14:10;;;;;;;;;;;21.50;77.20;;;;;;5053432;28;1082;-68
2021/08/05 14:16:38;;;;;;;;;;;21.50;77.30;;;;;;5048594;28;1902;-69
2021/08/05 14:19:04;;;;;;;;;;;21.50;77.20;;;;;;5046918;28;1158;-71
2021/08/05 14:21:29;;;;;;;;;;;21.50;77.20;;;;;;5054649;28;1099;-69
2021/08/05 14:23:54;;;;;;;;;;;21.50;77.20;;;;;;5054253;28;1060;-68
2021/08/05 14:26:20;;;;;;;;;;;21.50;77.30;;;;;;5052526;28;1305;-70
2021/08/05 14:28:45;;;;;;;;;;;21.50;77.30;;;;;;5054208;28;1194;-70
2021/08/05 14:31:11;;;;;;;;;;;21.50;77.30;;;;;;5049010;28;1647;-69